TimeCDT,TemperatureF,Dew PointF,Humidity,Sea Level PressureIn,VisibilityMPH,Wind Direction,Wind SpeedMPH,Gust SpeedMPH,PrecipitationIn,Events,Conditions,WindDirDegrees,DateUTC
12:15 AM,53.6,50.0,88,30.08,10.0,ESE,5.8,-,N/A,,Clear,110,2013-06-18 05:15:00
12:35 AM,51.8,50.0,94,30.08,10.0,ESE,4.6,-,N/A,,Clear,120,2013-06-18 05:35:00
12:55 AM,53.6,50.0,88,30.08,10.0,ESE,4.6,-,N/A,,Clear,110,2013-06-18 05:55:00
1:15 AM,51.8,50.0,94,30.08,10.0,Calm,Calm,-,N/A,,Clear,0,2013-06-18 06:15:00
1:35 AM,53.6,50.0,88,30.09,10.0,SW,4.6,-,N/A,,Clear,230,2013-06-18 06:35:00
1:55 AM,50.0,48.2,94,30.08,10.0,Calm,Calm,-,N/A,,Clear,0,2013-06-18 06:55:00
2:15 AM,48.2,48.2,100,30.08,10.0,Calm,Calm,-,N/A,,Clear,0,2013-06-18 07:15:00
2:35 AM,48.2,48.2,100,30.08,10.0,Calm,Calm,-,N/A,,Clear,0,2013-06-18 07:35:00
2:55 AM,48.2,46.4,93,30.08,10.0,Calm,Calm,-,N/A,,Clear,0,2013-06-18 07:55:00
3:15 AM,46.4,46.4,100,30.09,10.0,Calm,Calm,-,N/A,,Clear,0,2013-06-18 08:15:00
3:35 AM,46.4,46.4,100,30.08,10.0,Calm,Calm,-,N/A,,Clear,0,2013-06-18 08:35:00
3:55 AM,46.4,46.4,100,30.08,10.0,Calm,Calm,-,N/A,,Clear,0,2013-06-18 08:55:00
4:15 AM,46.4,46.4,100,30.08,10.0,Calm,Calm,-,N/A,,Clear,0,2013-06-18 09:15:00
4:35 AM,44.6,44.6,100,30.09,10.0,Calm,Calm,-,N/A,,Clear,0,2013-06-18 09:35:00
4:55 AM,44.6,44.6,100,30.09,10.0,Calm,Calm,-,N/A,,Clear,0,2013-06-18 09:55:00
5:15 AM,42.8,42.8,100,30.09,10.0,Calm,Calm,-,N/A,,Clear,0,2013-06-18 10:15:00
5:35 AM,44.6,44.6,100,30.09,8.0,Calm,Calm,-,N/A,,Clear,0,2013-06-18 10:35:00
5:55 AM,42.8,42.8,100,30.09,7.0,Calm,Calm,-,N/A,,Clear,0,2013-06-18 10:55:00
6:15 AM,44.6,44.6,100,30.09,8.0,Calm,Calm,-,N/A,,Clear,0,2013-06-18 11:15:00
6:35 AM,44.6,44.6,100,30.09,7.0,Calm,Calm,-,N/A,,Clear,0,2013-06-18 11:35:00
6:55 AM,46.4,46.4,100,30.08,7.0,Calm,Calm,-,N/A,,Clear,0,2013-06-18 11:55:00
7:15 AM,48.2,48.2,100,30.08,9.0,ESE,3.5,-,N/A,,Clear,110,2013-06-18 12:15:00
7:35 AM,50.0,50.0,100,30.07,9.0,Calm,Calm,-,N/A,,Clear,0,2013-06-18 12:35:00
7:55 AM,51.8,51.8,100,30.07,10.0,ESE,6.9,-,N/A,,Clear,110,2013-06-18 12:55:00
8:15 AM,53.6,53.6,100,30.07,10.0,ESE,8.1,-,N/A,,Clear,120,2013-06-18 13:15:00
8:35 AM,53.6,53.6,100,30.07,10.0,SE,5.8,-,N/A,,Clear,130,2013-06-18 13:35:00
8:55 AM,55.4,53.6,94,30.07,10.0,SE,5.8,-,N/A,,Clear,130,2013-06-18 13:55:00
9:15 AM,57.2,55.4,94,30.07,10.0,SE,5.8,-,N/A,,Clear,140,2013-06-18 14:15:00
9:35 AM,60.8,55.4,82,30.06,7.0,ESE,4.6,-,N/A,,Clear,120,2013-06-18 14:35:00
9:55 AM,62.6,55.4,77,30.06,10.0,SE,5.8,-,N/A,,Clear,130,2013-06-18 14:55:00
10:15 AM,64.4,53.6,68,30.06,10.0,SE,6.9,-,N/A,,Clear,130,2013-06-18 15:15:00
10:35 AM,66.2,53.6,64,30.05,10.0,SSE,5.8,-,N/A,,Clear,160,2013-06-18 15:35:00
10:55 AM,66.2,53.6,64,30.04,10.0,SE,6.9,-,N/A,,Clear,130,2013-06-18 15:55:00
11:15 AM,68.0,53.6,60,30.04,10.0,SSE,10.4,-,N/A,,Clear,160,2013-06-18 16:15:00
11:35 AM,68.0,53.6,60,30.03,10.0,SSE,9.2,-,N/A,,Clear,150,2013-06-18 16:35:00
11:55 AM,68.0,51.8,56,30.02,10.0,SSE,6.9,-,N/A,,Clear,150,2013-06-18 16:55:00
12:15 PM,69.8,51.8,53,30.02,10.0,SSE,6.9,-,N/A,,Clear,150,2013-06-18 17:15:00
12:35 PM,71.6,53.6,53,30.01,10.0,SSE,9.2,-,N/A,,Clear,150,2013-06-18 17:35:00
12:55 PM,71.6,51.8,50,30.01,10.0,SE,10.4,-,N/A,,Clear,140,2013-06-18 17:55:00
1:15 PM,71.6,51.8,50,30.01,10.0,South,6.9,-,N/A,,Clear,190,2013-06-18 18:15:00
1:35 PM,73.4,53.6,50,30.00,10.0,SE,8.1,-,N/A,,Clear,140,2013-06-18 18:35:00
1:55 PM,73.4,55.4,53,29.99,10.0,South,8.1,-,N/A,,Clear,170,2013-06-18 18:55:00
2:15 PM,73.4,55.4,53,29.99,10.0,SE,11.5,-,N/A,,Clear,140,2013-06-18 19:15:00
2:35 PM,73.4,55.4,53,29.98,10.0,SSE,9.2,-,N/A,,Partly Cloudy,150,2013-06-18 19:35:00
2:55 PM,73.4,55.4,53,29.98,10.0,SE,6.9,-,N/A,,Partly Cloudy,130,2013-06-18 19:55:00
3:15 PM,73.4,53.6,50,29.98,10.0,SE,5.8,-,N/A,,Scattered Clouds,130,2013-06-18 20:15:00
3:35 PM,73.4,55.4,53,29.96,10.0,ESE,8.1,-,N/A,,Clear,120,2013-06-18 20:35:00
3:55 PM,75.2,55.4,50,29.95,10.0,ESE,10.4,-,N/A,,Clear,120,2013-06-18 20:55:00
4:15 PM,73.4,55.4,53,29.95,10.0,SE,9.2,18.4,N/A,,Clear,130,2013-06-18 21:15:00
4:35 PM,75.2,57.2,53,29.94,10.0,ESE,8.1,-,N/A,,Clear,110,2013-06-18 21:35:00
4:55 PM,75.2,59.0,57,29.93,10.0,ESE,11.5,16.1,N/A,,Clear,120,2013-06-18 21:55:00
5:15 PM,75.2,57.2,53,29.93,10.0,SE,15.0,-,N/A,,Clear,130,2013-06-18 22:15:00
5:35 PM,75.2,57.2,53,29.92,10.0,SE,11.5,-,N/A,,Clear,140,2013-06-18 22:35:00
5:55 PM,75.2,55.4,50,29.92,10.0,SE,12.7,-,N/A,,Clear,140,2013-06-18 22:55:00
6:15 PM,75.2,57.2,53,29.91,10.0,SE,13.8,-,N/A,,Clear,130,2013-06-18 23:15:00
6:35 PM,75.2,57.2,53,29.90,10.0,SE,11.5,17.3,N/A,,Clear,140,2013-06-18 23:35:00
6:55 PM,75.2,57.2,53,29.90,10.0,SE,13.8,17.3,N/A,,Clear,140,2013-06-18 23:55:00
7:15 PM,75.2,57.2,53,29.90,10.0,ESE,11.5,-,N/A,,Clear,120,2013-06-19 00:15:00
7:35 PM,75.2,59.0,57,29.89,10.0,SE,10.4,-,N/A,,Clear,130,2013-06-19 00:35:00
7:55 PM,75.2,59.0,57,29.89,10.0,SE,8.1,-,N/A,,Clear,130,2013-06-19 00:55:00
8:15 PM,75.2,57.2,53,29.89,10.0,SE,10.4,-,N/A,,Clear,130,2013-06-19 01:15:00
8:35 PM,73.4,59.0,61,29.89,10.0,SE,9.2,-,N/A,,Clear,140,2013-06-19 01:35:00
8:55 PM,71.6,59.0,64,29.89,10.0,SE,9.2,-,N/A,,Clear,130,2013-06-19 01:55:00
9:15 PM,69.8,59.0,68,29.89,10.0,ESE,6.9,-,N/A,,Clear,120,2013-06-19 02:15:00
9:35 PM,66.2,59.0,78,29.88,10.0,ESE,6.9,-,N/A,,Clear,110,2013-06-19 02:35:00
9:55 PM,64.4,59.0,83,29.88,10.0,ESE,8.1,-,N/A,,Clear,110,2013-06-19 02:55:00
10:15 PM,62.6,59.0,88,29.88,10.0,ESE,8.1,-,N/A,,Clear,120,2013-06-19 03:15:00
10:35 PM,62.6,57.2,82,29.89,10.0,ESE,6.9,-,N/A,,Clear,110,2013-06-19 03:35:00
10:55 PM,62.6,57.2,82,29.89,10.0,East,6.9,-,N/A,,Clear,100,2013-06-19 03:55:00
11:15 PM,62.6,57.2,82,29.89,10.0,ESE,8.1,-,N/A,,Clear,110,2013-06-19 04:15:00
11:35 PM,62.6,57.2,82,29.89,10.0,ESE,9.2,-,N/A,,Clear,120,2013-06-19 04:35:00
11:55 PM,60.8,57.2,88,29.88,10.0,ESE,10.4,-,N/A,,Clear,120,2013-06-19 04:55:00